createdAt,value
2019-05-21T00:01:19.932Z,12.60
2019-05-21T00:06:23.879Z,12.60
2019-05-21T00:11:27.562Z,12.50
2019-05-21T00:16:31.500Z,12.60
2019-05-21T00:21:35.452Z,12.60
2019-05-21T00:26:39.102Z,12.50
2019-05-21T00:32:18.515Z,12.50
2019-05-21T00:37:58.065Z,12.40
2019-05-21T00:43:01.825Z,12.50
2019-05-21T00:48:05.935Z,12.50
2019-05-21T00:53:09.679Z,12.40
2019-05-21T00:58:13.615Z,12.30
2019-05-21T01:03:17.322Z,12.30
2019-05-21T01:08:20.996Z,12.40
2019-05-21T01:13:24.676Z,12.30
2019-05-21T01:18:28.506Z,12.30
2019-05-21T01:23:32.191Z,12.20
2019-05-21T01:28:35.972Z,12.10
2019-05-21T01:33:39.702Z,12.00
2019-05-21T01:38:43.604Z,11.70
2019-05-21T01:43:47.571Z,11.70
2019-05-21T01:48:51.595Z,11.50
2019-05-21T01:53:55.291Z,11.40
2019-05-21T01:58:59.101Z,11.30
2019-05-21T02:04:02.841Z,11.50
2019-05-21T02:09:08.150Z,11.40
2019-05-21T02:14:12.047Z,11.20
2019-05-21T02:19:15.765Z,11.20
2019-05-21T02:24:19.463Z,11.20
2019-05-21T02:29:23.124Z,11.20
2019-05-21T02:34:26.869Z,11.20
2019-05-21T02:39:30.535Z,11.20
2019-05-21T02:44:34.210Z,11.20
2019-05-21T02:49:38.114Z,11.50
2019-05-21T02:54:42.177Z,11.60
2019-05-21T02:59:47.996Z,11.50
2019-05-21T03:04:52.141Z,11.40
2019-05-21T03:09:55.803Z,11.40
2019-05-21T03:14:59.575Z,11.40
2019-05-21T03:20:04.262Z,11.30
2019-05-21T03:25:08.381Z,11.40
2019-05-21T03:30:12.813Z,11.40
2019-05-21T03:35:17.650Z,11.20
2019-05-21T03:40:21.328Z,11.30
2019-05-21T03:45:25.067Z,11.40
2019-05-21T03:50:28.761Z,11.20
2019-05-21T03:55:32.420Z,11.20
2019-05-21T04:00:36.090Z,11.20
2019-05-21T04:05:39.761Z,11.30
2019-05-21T04:10:43.664Z,11.50
2019-05-21T04:16:09.299Z,11.70
2019-05-21T04:21:12.985Z,11.80
2019-05-21T04:26:16.704Z,11.90
2019-05-21T04:31:20.347Z,12.00
2019-05-21T04:36:24.284Z,12.20
2019-05-21T04:41:28.063Z,12.20
2019-05-21T04:46:31.801Z,12.20
2019-05-21T04:51:35.701Z,12.30
2019-05-21T04:56:39.409Z,12.50
2019-05-21T05:01:43.258Z,12.80
2019-05-21T05:06:46.958Z,13.20
2019-05-21T05:11:50.699Z,13.50
2019-05-21T05:16:54.603Z,13.70
2019-05-21T05:21:58.369Z,13.80
2019-05-21T05:27:02.083Z,14.00
2019-05-21T05:32:05.754Z,14.30
2019-05-21T05:37:09.467Z,14.50
2019-05-21T05:42:13.244Z,14.60
2019-05-21T05:47:17.039Z,14.50
2019-05-21T05:52:21.001Z,14.60
2019-05-21T05:57:24.801Z,14.70
2019-05-21T06:02:28.563Z,14.80
2019-05-21T06:07:32.542Z,14.90
2019-05-21T06:12:36.325Z,15.00
2019-05-21T06:17:40.044Z,15.20
2019-05-21T06:22:43.827Z,15.30
2019-05-21T06:27:47.745Z,15.50
2019-05-21T06:32:51.702Z,15.50
2019-05-21T06:37:55.517Z,15.70
2019-05-21T06:42:59.418Z,15.90
2019-05-21T06:48:03.139Z,16.30
2019-05-21T06:53:06.943Z,16.90
2019-05-21T06:58:10.610Z,16.80
2019-05-21T07:03:14.350Z,16.70
2019-05-21T07:08:33.544Z,16.80
2019-05-21T07:13:23.693Z,16.80
2019-05-21T07:18:27.383Z,17.10
2019-05-21T07:23:31.310Z,17.30
2019-05-21T07:28:35.079Z,17.30
2019-05-21T07:33:38.770Z,17.40
2019-05-21T07:38:53.312Z,17.80
2019-05-21T07:43:59.245Z,18.40
2019-05-21T07:49:03.587Z,18.60
2019-05-21T07:54:07.444Z,19.10
2019-05-21T07:59:11.233Z,19.10
2019-05-21T08:04:15.279Z,18.80
2019-05-21T08:09:19.449Z,19.30
2019-05-21T08:14:23.222Z,20.10
2019-05-21T08:19:31.079Z,20.40
2019-05-21T08:24:33.683Z,20.60
2019-05-21T08:29:37.433Z,20.90
2019-05-21T08:34:41.124Z,20.80
2019-05-21T08:39:44.862Z,21.00
2019-05-21T08:44:48.830Z,21.30
2019-05-21T08:49:52.507Z,21.80
2019-05-21T08:54:56.755Z,22.10
2019-05-21T09:00:00.469Z,21.90
2019-05-21T09:05:04.651Z,22.90
2019-05-21T09:10:09.547Z,24.20
2019-05-21T09:15:16.041Z,23.20
2019-05-21T09:20:20.086Z,23.50
2019-05-21T09:25:24.072Z,23.90
2019-05-21T09:30:27.813Z,26.60
2019-05-21T09:35:31.846Z,29.30
2019-05-21T09:40:35.799Z,28.80
2019-05-21T09:45:39.592Z,27.60
2019-05-21T09:50:43.438Z,27.00
2019-05-21T09:55:47.601Z,29.20
2019-05-21T10:01:18.240Z,33.40
2019-05-21T10:06:23.392Z,32.10
2019-05-21T10:11:30.127Z,34.60
2019-05-21T10:36:16.040Z,36.50
2019-05-21T10:54:16.011Z,36.60
2019-05-21T11:11:41.989Z,37.50
2019-05-21T12:10:39.745Z,39.90
2019-05-21T12:16:21.680Z,34.00
2019-05-21T12:21:46.962Z,35.90
2019-05-21T12:27:21.850Z,38.40
2019-05-21T12:32:36.433Z,40.20
2019-05-21T12:38:33.154Z,37.50
2019-05-21T12:44:13.672Z,37.90
2019-05-21T13:01:12.659Z,36.00
2019-05-21T13:06:54.964Z,34.90
2019-05-21T13:12:00.101Z,36.50
2019-05-21T13:17:50.372Z,33.90
2019-05-21T13:23:27.024Z,33.00
2019-05-21T13:28:58.957Z,32.60
2019-05-21T13:34:10.927Z,34.90
2019-05-21T13:39:14.888Z,37.20
2019-05-21T13:44:18.582Z,39.30
2019-05-21T13:49:22.326Z,39.10
2019-05-21T13:54:26.107Z,37.60
2019-05-21T13:59:30.125Z,36.00
2019-05-21T14:04:34.052Z,33.90
2019-05-21T14:09:37.934Z,32.20
2019-05-21T14:14:41.635Z,31.40
2019-05-21T14:19:45.390Z,30.70
2019-05-21T14:24:49.101Z,31.30
2019-05-21T14:29:52.857Z,31.40
2019-05-21T14:35:01.141Z,30.70
2019-05-21T14:40:02.154Z,30.00
2019-05-21T14:45:06.245Z,29.90
2019-05-21T14:50:10.576Z,29.50
2019-05-21T14:55:14.550Z,29.00
2019-05-21T15:00:27.571Z,28.80
2019-05-21T15:05:31.492Z,29.10
2019-05-21T15:10:47.834Z,29.40
2019-05-21T15:15:41.045Z,28.80
2019-05-21T15:21:02.777Z,29.00
2019-05-21T15:26:06.583Z,29.40
2019-05-21T15:31:10.300Z,28.80
2019-05-21T15:36:14.338Z,27.90
2019-05-21T15:41:18.045Z,26.80
2019-05-21T15:46:21.736Z,26.00
2019-05-21T15:51:25.398Z,25.70
2019-05-21T15:56:29.292Z,25.40
2019-05-21T16:01:33.209Z,25.00
2019-05-21T16:06:36.951Z,24.60
2019-05-21T16:11:40.641Z,24.60
2019-05-21T16:16:44.688Z,24.80
2019-05-21T16:21:48.375Z,25.00
2019-05-21T16:26:52.382Z,25.10
2019-05-21T16:31:56.081Z,25.30
2019-05-21T16:36:59.907Z,25.20
2019-05-21T16:42:03.814Z,25.30
2019-05-21T16:47:07.517Z,25.60
2019-05-21T16:52:11.654Z,25.60
2019-05-21T16:57:15.772Z,25.20
2019-05-21T17:02:19.485Z,25.00
2019-05-21T17:07:23.394Z,24.80
2019-05-21T17:12:27.242Z,25.10
2019-05-21T17:17:30.981Z,26.20
2019-05-21T17:22:34.947Z,26.30
2019-05-21T17:27:38.764Z,26.20
2019-05-21T17:32:42.738Z,26.00
2019-05-21T17:37:46.670Z,26.20
2019-05-21T17:42:50.557Z,26.00
2019-05-21T17:47:54.316Z,25.80
2019-05-21T17:52:58.354Z,25.30
2019-05-21T17:58:02.147Z,25.20
2019-05-21T18:03:06.296Z,24.90
2019-05-21T18:08:10.340Z,25.00
2019-05-21T18:13:14.441Z,24.60
2019-05-21T18:18:18.165Z,24.30
2019-05-21T18:23:22.052Z,23.90
2019-05-21T18:28:25.901Z,23.80
2019-05-21T18:33:29.569Z,23.50
2019-05-21T18:38:33.578Z,23.20
2019-05-21T18:43:37.625Z,22.80
2019-05-21T18:48:41.395Z,22.60
2019-05-21T18:53:48.049Z,22.20
2019-05-21T18:58:52.617Z,21.90
2019-05-21T19:03:56.359Z,21.80
2019-05-21T19:09:00.040Z,21.60
2019-05-21T19:14:03.993Z,21.50
2019-05-21T19:19:07.885Z,21.40
2019-05-21T19:24:11.762Z,21.30
2019-05-21T19:29:15.503Z,21.30
2019-05-21T19:34:19.196Z,21.20
2019-05-21T19:39:22.955Z,21.30
2019-05-21T19:44:26.949Z,21.00
2019-05-21T19:49:30.731Z,21.00
2019-05-21T19:54:34.734Z,20.80
2019-05-21T19:59:38.498Z,20.80
2019-05-21T20:04:42.754Z,21.00
2019-05-21T20:09:48.506Z,20.80
2019-05-21T20:14:52.285Z,20.50
2019-05-21T20:19:56.492Z,20.30
2019-05-21T20:25:00.497Z,19.80
2019-05-21T20:30:12.662Z,19.50
2019-05-21T20:35:12.027Z,19.40
2019-05-21T20:40:16.605Z,19.30
2019-05-21T20:45:21.450Z,19.30
2019-05-21T20:50:26.179Z,19.30
2019-05-21T20:55:31.718Z,19.20
2019-05-21T21:00:46.543Z,19.20
2019-05-21T21:05:50.616Z,19.10
2019-05-21T21:10:54.310Z,19.00
2019-05-21T21:15:58.369Z,19.30
2019-05-21T21:21:02.259Z,19.00
2019-05-21T21:26:06.432Z,18.90
2019-05-21T21:31:10.340Z,18.70
2019-05-21T21:36:14.236Z,18.70
2019-05-21T21:41:18.743Z,18.60
2019-05-21T21:46:22.783Z,18.50
2019-05-21T21:51:26.580Z,18.40
2019-05-21T21:56:30.374Z,18.30
2019-05-21T22:01:43.790Z,18.30
2019-05-21T22:06:49.456Z,18.20
2019-05-21T22:11:53.787Z,18.10
2019-05-21T22:16:57.843Z,18.10
2019-05-21T22:22:01.802Z,18.00
2019-05-21T22:27:05.609Z,17.90
2019-05-21T22:32:09.468Z,17.90
2019-05-21T22:37:14.931Z,17.90
2019-05-21T22:42:19.294Z,17.80
2019-05-21T22:47:23.050Z,17.70
2019-05-21T22:52:26.741Z,17.60
2019-05-21T22:57:30.513Z,17.50
2019-05-21T23:02:36.569Z,17.60
2019-05-21T23:07:40.344Z,17.50
2019-05-21T23:12:44.770Z,17.40
2019-05-21T23:17:48.569Z,17.50
2019-05-21T23:22:54.302Z,17.40
2019-05-21T23:27:59.036Z,17.40
2019-05-21T23:33:03.782Z,17.40
2019-05-21T23:38:08.855Z,17.20
2019-05-21T23:43:13.446Z,17.20
2019-05-21T23:48:17.414Z,17.10
2019-05-21T23:53:21.084Z,16.80
2019-05-21T23:58:24.758Z,16.80
